Hesperides — EBBW — position and weather

sailwx.info

Track history (hours):
 
Tides and Currents Weather Stations Pressure Air Temp Water Temp Dewpoint Dewpoint Depression Visibility Wind Speed Wind Dir Waves Ship Positions

Oceanographic research ship Hesperides (Spain)

Detailed information on ship capabilities available from University of Delaware's Ocean Information Center.

Last reported at 2017-Jul-12 04:59 UTC. Time now 2017-Aug-16 19:11 UTC.
Position N 37°30' W 001°03'.
Warning: this ship's position is 35 days out of date.

Length 82 m; draft 5.5 m.

Type: Ship. MMSI: 224886000.

Date/timePositionNaut miles runAvg speedWind from/ knotsBaromVisibWave heightAir tempDewpointWater temp
2017-Jul-12 04:59N 37°30' W 001°03'4 4.5
2017-Jul-12 04:03N 37°27' W 001°06'1 4.7
2017-Jul-12 03:55N 37°26' W 001°06'4 4.8
2017-Jul-12 03:01N 37°23' W 001°09'0 5.0
2017-Jul-12 03:00N 37°23' W 001°10'4 4.7
2017-Jul-12 02:13N 37°20' W 001°12'11 4.9
2017-Jul-12 00:01N 37°11' W 001°20'0 4.7
2017-Jul-12 00:00N 37°11' W 001°20'3 5.3
2017-Jul-11 23:29N 37°08' W 001°22'3 5.3
2017-Jul-11 23:00N 37°06' W 001°24'19 5.5
2017-Jul-11 19:32N 36°54' W 001°42'1 5.5
2017-Jul-11 19:25N 36°54' W 001°43'3 5.5
2017-Jul-11 18:54N 36°52' W 001°46'178 6.8
2017-Jul-10 16:48N 35°60' W 005°18'  
Track history (hours):
 
Tides and Currents Weather Stations Pressure Air Temp Water Temp Dewpoint Dewpoint Depression Visibility Wind Speed Wind Dir Waves Ship Positions

Oceanographic research ship Hesperides (Spain)

Detailed information on ship capabilities available from University of Delaware's Ocean Information Center.

Last reported at 2017-Jul-12 04:59 UTC. Time now 2017-Aug-16 19:11 UTC.
Position N 37°30' W 001°03'.
Warning: this ship's position is 35 days out of date.

Length 82 m; draft 5.5 m.

Type: Ship. MMSI: 224886000.

Date/timePositionNaut miles runAvg speedWind from/ knotsBaromVisibWave heightAir tempDewpointWater temp
2017-Jul-12 04:59N 37°30' W 001°03'4 4.5
2017-Jul-12 04:03N 37°27' W 001°06'1 4.7
2017-Jul-12 03:55N 37°26' W 001°06'4 4.8
2017-Jul-12 03:01N 37°23' W 001°09'0 5.0
2017-Jul-12 03:00N 37°23' W 001°10'4 4.7
2017-Jul-12 02:13N 37°20' W 001°12'11 4.9
2017-Jul-12 00:01N 37°11' W 001°20'0 4.7
2017-Jul-12 00:00N 37°11' W 001°20'3 5.3
2017-Jul-11 23:29N 37°08' W 001°22'3 5.3
2017-Jul-11 23:00N 37°06' W 001°24'19 5.5
2017-Jul-11 19:32N 36°54' W 001°42'1 5.5
2017-Jul-11 19:25N 36°54' W 001°43'3 5.5
2017-Jul-11 18:54N 36°52' W 001°46'178 6.8
2017-Jul-10 16:48N 35°60' W 005°18'  

Dump ship's entire track history